sensor_id;sensor_type;location;lat;lon;timestamp;P1;durP1;ratioP1;P2;durP2;ratioP2
4980;SDS011;2507;50.392;7.482;2023-02-28T00:00:07;2.00;;;1.90;;
4980;SDS011;2507;50.392;7.482;2023-02-28T00:02:35;2.63;;;2.43;;
4980;SDS011;2507;50.392;7.482;2023-02-28T00:05:04;4.40;;;1.60;;
4980;SDS011;2507;50.392;7.482;2023-02-28T00:07:31;2.20;;;2.10;;
4980;SDS011;2507;50.392;7.482;2023-02-28T00:09:56;6.30;;;2.07;;
4980;SDS011;2507;50.392;7.482;2023-02-28T00:12:22;2.40;;;2.20;;
4980;SDS011;2507;50.392;7.482;2023-02-28T00:14:48;2.40;;;2.30;;
4980;SDS011;2507;50.392;7.482;2023-02-28T00:17:13;2.00;;;1.80;;
4980;SDS011;2507;50.392;7.482;2023-02-28T00:19:38;2.87;;;2.37;;
4980;SDS011;2507;50.392;7.482;2023-02-28T00:22:04;2.70;;;2.50;;
4980;SDS011;2507;50.392;7.482;2023-02-28T00:24:29;4.93;;;2.40;;
4980;SDS011;2507;50.392;7.482;2023-02-28T00:26:54;3.60;;;2.50;;
4980;SDS011;2507;50.392;7.482;2023-02-28T00:29:19;2.13;;;2.03;;
4980;SDS011;2507;50.392;7.482;2023-02-28T00:31:45;2.33;;;2.13;;
4980;SDS011;2507;50.392;7.482;2023-02-28T00:34:10;2.67;;;2.50;;
4980;SDS011;2507;50.392;7.482;2023-02-28T00:36:35;2.40;;;2.30;;
4980;SDS011;2507;50.392;7.482;2023-02-28T00:39:00;4.40;;;2.73;;
4980;SDS011;2507;50.392;7.482;2023-02-28T00:41:26;3.13;;;2.77;;
4980;SDS011;2507;50.392;7.482;2023-02-28T00:43:51;3.00;;;2.73;;
4980;SDS011;2507;50.392;7.482;2023-02-28T00:46:16;2.17;;;2.07;;
4980;SDS011;2507;50.392;7.482;2023-02-28T00:48:41;7.07;;;3.30;;
4980;SDS011;2507;50.392;7.482;2023-02-28T00:51:07;4.13;;;2.07;;
4980;SDS011;2507;50.392;7.482;2023-02-28T00:53:32;2.70;;;2.40;;
4980;SDS011;2507;50.392;7.482;2023-02-28T00:55:58;2.83;;;2.63;;
4980;SDS011;2507;50.392;7.482;2023-02-28T00:58:23;3.10;;;2.90;;
4980;SDS011;2507;50.392;7.482;2023-02-28T01:00:49;3.30;;;3.10;;
4980;SDS011;2507;50.392;7.482;2023-02-28T01:03:16;3.00;;;2.80;;
4980;SDS011;2507;50.392;7.482;2023-02-28T01:05:42;2.40;;;2.30;;
4980;SDS011;2507;50.392;7.482;2023-02-28T01:08:08;3.03;;;2.93;;
4980;SDS011;2507;50.392;7.482;2023-02-28T01:10:33;3.23;;;2.93;;
4980;SDS011;2507;50.392;7.482;2023-02-28T01:12:58;3.17;;;2.97;;
4980;SDS011;2507;50.392;7.482;2023-02-28T01:15:24;3.10;;;2.90;;
4980;SDS011;2507;50.392;7.482;2023-02-28T01:17:49;2.90;;;2.80;;
4980;SDS011;2507;50.392;7.482;2023-02-28T01:20:14;2.70;;;2.60;;
4980;SDS011;2507;50.392;7.482;2023-02-28T01:22:40;2.30;;;2.20;;
4980;SDS011;2507;50.392;7.482;2023-02-28T01:25:05;3.53;;;3.10;;
4980;SDS011;2507;50.392;7.482;2023-02-28T01:27:31;3.27;;;3.00;;
4980;SDS011;2507;50.392;7.482;2023-02-28T01:29:56;3.10;;;3.00;;
4980;SDS011;2507;50.392;7.482;2023-02-28T01:32:21;3.90;;;3.70;;
4980;SDS011;2507;50.392;7.482;2023-02-28T01:34:47;3.40;;;3.30;;
4980;SDS011;2507;50.392;7.482;2023-02-28T01:37:12;5.10;;;4.67;;
4980;SDS011;2507;50.392;7.482;2023-02-28T01:39:37;3.10;;;3.00;;
4980;SDS011;2507;50.392;7.482;2023-02-28T01:42:02;3.50;;;3.20;;
4980;SDS011;2507;50.392;7.482;2023-02-28T01:47:30;2.60;;;2.50;;
4980;SDS011;2507;50.392;7.482;2023-02-28T01:49:58;3.70;;;3.10;;
4980;SDS011;2507;50.392;7.482;2023-02-28T01:52:27;2.80;;;2.70;;
4980;SDS011;2507;50.392;7.482;2023-02-28T01:54:56;4.67;;;3.80;;
4980;SDS011;2507;50.392;7.482;2023-02-28T01:57:28;3.60;;;3.40;;
4980;SDS011;2507;50.392;7.482;2023-02-28T02:00:03;4.00;;;3.50;;
4980;SDS011;2507;50.392;7.482;2023-02-28T02:02:33;3.93;;;3.63;;
4980;SDS011;2507;50.392;7.482;2023-02-28T02:05:00;4.60;;;2.53;;
4980;SDS011;2507;50.392;7.482;2023-02-28T02:07:29;4.07;;;3.60;;
4980;SDS011;2507;50.392;7.482;2023-02-28T02:10:21;4.23;;;3.00;;
4980;SDS011;2507;50.392;7.482;2023-02-28T02:15:32;3.30;;;3.00;;
4980;SDS011;2507;50.392;7.482;2023-02-28T02:18:04;3.30;;;3.10;;
4980;SDS011;2507;50.392;7.482;2023-02-28T02:20:57;3.80;;;3.50;;
4980;SDS011;2507;50.392;7.482;2023-02-28T02:32:17;3.80;;;3.60;;
4980;SDS011;2507;50.392;7.482;2023-02-28T02:35:12;5.77;;;3.80;;
4980;SDS011;2507;50.392;7.482;2023-02-28T02:37:43;5.47;;;3.30;;
4980;SDS011;2507;50.392;7.482;2023-02-28T02:40:22;3.50;;;3.40;;
4980;SDS011;2507;50.392;7.482;2023-02-28T02:42:53;3.90;;;3.70;;
4980;SDS011;2507;50.392;7.482;2023-02-28T02:47:55;6.27;;;3.27;;
4980;SDS011;2507;50.392;7.482;2023-02-28T02:50:24;3.83;;;3.50;;
4980;SDS011;2507;50.392;7.482;2023-02-28T02:52:56;3.87;;;3.57;;
4980;SDS011;2507;50.392;7.482;2023-02-28T02:55:25;3.43;;;3.13;;
4980;SDS011;2507;50.392;7.482;2023-02-28T02:57:57;3.70;;;3.50;;
4980;SDS011;2507;50.392;7.482;2023-02-28T03:00:33;3.70;;;3.40;;
4980;SDS011;2507;50.392;7.482;2023-02-28T03:03:02;3.37;;;3.07;;
4980;SDS011;2507;50.392;7.482;2023-02-28T03:05:36;3.60;;;3.40;;
4980;SDS011;2507;50.392;7.482;2023-02-28T03:08:07;3.53;;;3.27;;
4980;SDS011;2507;50.392;7.482;2023-02-28T03:10:37;2.90;;;2.80;;
4980;SDS011;2507;50.392;7.482;2023-02-28T03:24:45;3.40;;;3.20;;
4980;SDS011;2507;50.392;7.482;2023-02-28T03:27:17;3.20;;;3.10;;
4980;SDS011;2507;50.392;7.482;2023-02-28T03:33:20;3.30;;;3.10;;
4980;SDS011;2507;50.392;7.482;2023-02-28T03:35:54;3.20;;;3.03;;
4980;SDS011;2507;50.392;7.482;2023-02-28T03:38:28;4.00;;;3.70;;
4980;SDS011;2507;50.392;7.482;2023-02-28T03:41:04;3.23;;;3.03;;
4980;SDS011;2507;50.392;7.482;2023-02-28T03:43:35;3.70;;;3.50;;
4980;SDS011;2507;50.392;7.482;2023-02-28T03:46:06;3.40;;;3.17;;
4980;SDS011;2507;50.392;7.482;2023-02-28T03:51:12;3.60;;;3.30;;
4980;SDS011;2507;50.392;7.482;2023-02-28T03:53:43;3.67;;;3.47;;
4980;SDS011;2507;50.392;7.482;2023-02-28T03:56:22;3.50;;;3.30;;
4980;SDS011;2507;50.392;7.482;2023-02-28T04:04:06;4.10;;;3.80;;
4980;SDS011;2507;50.392;7.482;2023-02-28T04:06:32;3.53;;;3.27;;
4980;SDS011;2507;50.392;7.482;2023-02-28T04:08:58;4.07;;;3.77;;
4980;SDS011;2507;50.392;7.482;2023-02-28T04:11:41;4.13;;;3.60;;
4980;SDS011;2507;50.392;7.482;2023-02-28T04:14:09;6.47;;;4.10;;
4980;SDS011;2507;50.392;7.482;2023-02-28T04:16:36;4.20;;;3.50;;
4980;SDS011;2507;50.392;7.482;2023-02-28T04:19:04;4.00;;;3.70;;
4980;SDS011;2507;50.392;7.482;2023-02-28T04:21:52;3.30;;;3.10;;
4980;SDS011;2507;50.392;7.482;2023-02-28T04:24:18;3.70;;;3.50;;
4980;SDS011;2507;50.392;7.482;2023-02-28T04:26:46;4.00;;;3.70;;
4980;SDS011;2507;50.392;7.482;2023-02-28T04:29:14;3.30;;;3.13;;
4980;SDS011;2507;50.392;7.482;2023-02-28T04:31:44;4.10;;;3.70;;
4980;SDS011;2507;50.392;7.482;2023-02-28T04:34:09;3.90;;;3.70;;
4980;SDS011;2507;50.392;7.482;2023-02-28T04:36:34;4.10;;;3.77;;
4980;SDS011;2507;50.392;7.482;2023-02-28T04:39:00;4.07;;;3.90;;
4980;SDS011;2507;50.392;7.482;2023-02-28T04:41:25;5.33;;;3.67;;
4980;SDS011;2507;50.392;7.482;2023-02-28T04:43:51;3.43;;;3.23;;
4980;SDS011;2507;50.392;7.482;2023-02-28T04:46:17;3.67;;;3.47;;
4980;SDS011;2507;50.392;7.482;2023-02-28T04:48:43;4.20;;;3.87;;
4980;SDS011;2507;50.392;7.482;2023-02-28T04:51:10;4.07;;;3.77;;
4980;SDS011;2507;50.392;7.482;2023-02-28T04:53:38;4.47;;;4.03;;
4980;SDS011;2507;50.392;7.482;2023-02-28T04:56:06;3.70;;;3.50;;
4980;SDS011;2507;50.392;7.482;2023-02-28T04:58:32;3.40;;;3.20;;
4980;SDS011;2507;50.392;7.482;2023-02-28T05:01:05;4.23;;;3.93;;
4980;SDS011;2507;50.392;7.482;2023-02-28T05:03:49;4.67;;;4.40;;
4980;SDS011;2507;50.392;7.482;2023-02-28T05:06:16;4.80;;;4.40;;
4980;SDS011;2507;50.392;7.482;2023-02-28T05:08:42;5.07;;;4.27;;
4980;SDS011;2507;50.392;7.482;2023-02-28T05:11:21;3.60;;;3.40;;
4980;SDS011;2507;50.392;7.482;2023-02-28T05:13:49;4.50;;;4.10;;
4980;SDS011;2507;50.392;7.482;2023-02-28T05:16:15;4.80;;;4.40;;
4980;SDS011;2507;50.392;7.482;2023-02-28T05:18:42;3.83;;;3.63;;
4980;SDS011;2507;50.392;7.482;2023-02-28T05:22:10;4.20;;;4.00;;
4980;SDS011;2507;50.392;7.482;2023-02-28T05:24:08;4.37;;;4.07;;
4980;SDS011;2507;50.392;7.482;2023-02-28T05:26:35;4.83;;;4.43;;
4980;SDS011;2507;50.392;7.482;2023-02-28T05:29:02;3.90;;;3.60;;
4980;SDS011;2507;50.392;7.482;2023-02-28T05:31:28;4.30;;;4.10;;
4980;SDS011;2507;50.392;7.482;2023-02-28T05:33:53;4.27;;;4.07;;
4980;SDS011;2507;50.392;7.482;2023-02-28T05:36:19;4.03;;;3.73;;
4980;SDS011;2507;50.392;7.482;2023-02-28T05:38:47;4.27;;;3.90;;
4980;SDS011;2507;50.392;7.482;2023-02-28T05:41:13;3.83;;;3.63;;
4980;SDS011;2507;50.392;7.482;2023-02-28T05:43:38;4.17;;;3.90;;
4980;SDS011;2507;50.392;7.482;2023-02-28T05:46:07;4.27;;;3.97;;
4980;SDS011;2507;50.392;7.482;2023-02-28T05:48:35;5.10;;;4.70;;
4980;SDS011;2507;50.392;7.482;2023-02-28T05:51:02;6.00;;;4.60;;
4980;SDS011;2507;50.392;7.482;2023-02-28T05:53:28;4.67;;;4.47;;
4980;SDS011;2507;50.392;7.482;2023-02-28T05:55:53;5.37;;;4.97;;
4980;SDS011;2507;50.392;7.482;2023-02-28T05:58:18;5.33;;;4.40;;
4980;SDS011;2507;50.392;7.482;2023-02-28T06:00:44;3.73;;;3.53;;
4980;SDS011;2507;50.392;7.482;2023-02-28T06:03:09;5.07;;;4.60;;
4980;SDS011;2507;50.392;7.482;2023-02-28T06:05:34;4.63;;;4.33;;
4980;SDS011;2507;50.392;7.482;2023-02-28T06:08:00;5.20;;;4.70;;
4980;SDS011;2507;50.392;7.482;2023-02-28T06:10:25;4.57;;;4.17;;
4980;SDS011;2507;50.392;7.482;2023-02-28T06:12:50;4.50;;;3.80;;
4980;SDS011;2507;50.392;7.482;2023-02-28T06:15:16;7.77;;;4.43;;
4980;SDS011;2507;50.392;7.482;2023-02-28T06:17:42;4.83;;;4.23;;
4980;SDS011;2507;50.392;7.482;2023-02-28T06:20:09;4.90;;;4.50;;
4980;SDS011;2507;50.392;7.482;2023-02-28T06:22:37;4.70;;;4.40;;
4980;SDS011;2507;50.392;7.482;2023-02-28T06:25:04;5.77;;;5.30;;
4980;SDS011;2507;50.392;7.482;2023-02-28T06:27:30;5.33;;;4.87;;
4980;SDS011;2507;50.392;7.482;2023-02-28T06:29:57;5.73;;;5.23;;
4980;SDS011;2507;50.392;7.482;2023-02-28T06:32:22;5.63;;;5.20;;
4980;SDS011;2507;50.392;7.482;2023-02-28T06:34:47;5.27;;;4.87;;
4980;SDS011;2507;50.392;7.482;2023-02-28T06:37:13;6.30;;;5.80;;
4980;SDS011;2507;50.392;7.482;2023-02-28T06:39:38;10.17;;;7.43;;
4980;SDS011;2507;50.392;7.482;2023-02-28T06:42:04;9.00;;;6.47;;
4980;SDS011;2507;50.392;7.482;2023-02-28T06:44:29;8.23;;;6.43;;
4980;SDS011;2507;50.392;7.482;2023-02-28T06:47:00;5.90;;;5.40;;
4980;SDS011;2507;50.392;7.482;2023-02-28T06:49:28;5.50;;;5.00;;
4980;SDS011;2507;50.392;7.482;2023-02-28T06:51:53;5.70;;;5.13;;
4980;SDS011;2507;50.392;7.482;2023-02-28T06:54:19;5.47;;;5.07;;
4980;SDS011;2507;50.392;7.482;2023-02-28T06:56:44;5.17;;;4.67;;
4980;SDS011;2507;50.392;7.482;2023-02-28T06:59:09;5.27;;;4.87;;
4980;SDS011;2507;50.392;7.482;2023-02-28T07:01:35;5.80;;;5.20;;
4980;SDS011;2507;50.392;7.482;2023-02-28T07:04:00;5.40;;;4.90;;
4980;SDS011;2507;50.392;7.482;2023-02-28T07:06:25;5.80;;;5.13;;
4980;SDS011;2507;50.392;7.482;2023-02-28T07:08:52;5.50;;;4.40;;
4980;SDS011;2507;50.392;7.482;2023-02-28T07:11:18;6.17;;;4.93;;
4980;SDS011;2507;50.392;7.482;2023-02-28T07:13:44;11.40;;;4.90;;
4980;SDS011;2507;50.392;7.482;2023-02-28T07:16:10;5.93;;;5.40;;
4980;SDS011;2507;50.392;7.482;2023-02-28T07:18:36;5.50;;;5.10;;
4980;SDS011;2507;50.392;7.482;2023-02-28T07:21:03;4.53;;;4.13;;
4980;SDS011;2507;50.392;7.482;2023-02-28T07:23:30;5.70;;;4.20;;
4980;SDS011;2507;50.392;7.482;2023-02-28T07:25:55;4.50;;;4.20;;
4980;SDS011;2507;50.392;7.482;2023-02-28T07:28:21;4.13;;;3.90;;
4980;SDS011;2507;50.392;7.482;2023-02-28T07:30:46;4.40;;;4.10;;
4980;SDS011;2507;50.392;7.482;2023-02-28T07:33:12;4.73;;;4.40;;
4980;SDS011;2507;50.392;7.482;2023-02-28T07:35:38;4.60;;;4.30;;
4980;SDS011;2507;50.392;7.482;2023-02-28T07:38:03;6.40;;;4.87;;
4980;SDS011;2507;50.392;7.482;2023-02-28T07:40:28;5.13;;;4.57;;
4980;SDS011;2507;50.392;7.482;2023-02-28T07:42:54;6.50;;;3.90;;
4980;SDS011;2507;50.392;7.482;2023-02-28T07:45:24;5.30;;;4.80;;
4980;SDS011;2507;50.392;7.482;2023-02-28T07:47:49;4.40;;;4.10;;
4980;SDS011;2507;50.392;7.482;2023-02-28T07:50:15;4.30;;;3.87;;
4980;SDS011;2507;50.392;7.482;2023-02-28T07:52:41;4.00;;;3.80;;
4980;SDS011;2507;50.392;7.482;2023-02-28T07:55:07;7.23;;;4.20;;
4980;SDS011;2507;50.392;7.482;2023-02-28T07:57:34;4.17;;;3.77;;
4980;SDS011;2507;50.392;7.482;2023-02-28T07:59:59;5.47;;;4.30;;
4980;SDS011;2507;50.392;7.482;2023-02-28T08:02:24;7.07;;;4.47;;
4980;SDS011;2507;50.392;7.482;2023-02-28T08:04:50;6.73;;;5.17;;
4980;SDS011;2507;50.392;7.482;2023-02-28T08:07:16;4.43;;;4.13;;
4980;SDS011;2507;50.392;7.482;2023-02-28T08:09:42;9.43;;;4.70;;
4980;SDS011;2507;50.392;7.482;2023-02-28T08:12:08;4.33;;;3.93;;
4980;SDS011;2507;50.392;7.482;2023-02-28T08:14:34;5.20;;;3.67;;
4980;SDS011;2507;50.392;7.482;2023-02-28T08:17:00;5.73;;;4.10;;
4980;SDS011;2507;50.392;7.482;2023-02-28T08:19:25;4.60;;;4.30;;
4980;SDS011;2507;50.392;7.482;2023-02-28T08:21:50;5.87;;;4.37;;
4980;SDS011;2507;50.392;7.482;2023-02-28T08:24:16;3.93;;;3.70;;
4980;SDS011;2507;50.392;7.482;2023-02-28T08:26:41;4.60;;;4.30;;
4980;SDS011;2507;50.392;7.482;2023-02-28T08:29:07;4.30;;;3.90;;
4980;SDS011;2507;50.392;7.482;2023-02-28T08:31:32;4.73;;;4.30;;
4980;SDS011;2507;50.392;7.482;2023-02-28T08:33:57;4.40;;;4.00;;
4980;SDS011;2507;50.392;7.482;2023-02-28T08:36:24;3.80;;;3.60;;
4980;SDS011;2507;50.392;7.482;2023-02-28T08:38:50;3.80;;;3.60;;
4980;SDS011;2507;50.392;7.482;2023-02-28T08:41:15;4.00;;;3.70;;
4980;SDS011;2507;50.392;7.482;2023-02-28T08:43:40;8.03;;;4.67;;
4980;SDS011;2507;50.392;7.482;2023-02-28T08:46:06;5.10;;;4.70;;
4980;SDS011;2507;50.392;7.482;2023-02-28T08:48:34;9.20;;;5.27;;
4980;SDS011;2507;50.392;7.482;2023-02-28T08:51:01;4.40;;;4.10;;
4980;SDS011;2507;50.392;7.482;2023-02-28T08:53:31;4.87;;;4.40;;
4980;SDS011;2507;50.392;7.482;2023-02-28T08:55:57;3.57;;;3.37;;
4980;SDS011;2507;50.392;7.482;2023-02-28T08:58:24;3.53;;;3.30;;
4980;SDS011;2507;50.392;7.482;2023-02-28T09:00:50;4.23;;;3.90;;
4980;SDS011;2507;50.392;7.482;2023-02-28T09:03:16;4.80;;;3.37;;
4980;SDS011;2507;50.392;7.482;2023-02-28T09:05:42;3.30;;;3.13;;
4980;SDS011;2507;50.392;7.482;2023-02-28T09:08:17;3.37;;;3.17;;
4980;SDS011;2507;50.392;7.482;2023-02-28T09:10:42;3.90;;;3.60;;
4980;SDS011;2507;50.392;7.482;2023-02-28T09:13:07;7.23;;;5.40;;
4980;SDS011;2507;50.392;7.482;2023-02-28T09:15:32;2.87;;;2.60;;
4980;SDS011;2507;50.392;7.482;2023-02-28T09:17:58;6.17;;;3.80;;
4980;SDS011;2507;50.392;7.482;2023-02-28T09:20:23;2.40;;;2.30;;
4980;SDS011;2507;50.392;7.482;2023-02-28T09:22:48;2.80;;;2.70;;
4980;SDS011;2507;50.392;7.482;2023-02-28T09:25:13;3.67;;;3.23;;
4980;SDS011;2507;50.392;7.482;2023-02-28T09:27:39;2.77;;;2.57;;
4980;SDS011;2507;50.392;7.482;2023-02-28T09:30:04;3.60;;;3.30;;
4980;SDS011;2507;50.392;7.482;2023-02-28T09:32:30;4.30;;;2.93;;
4980;SDS011;2507;50.392;7.482;2023-02-28T09:34:55;5.33;;;2.57;;
4980;SDS011;2507;50.392;7.482;2023-02-28T09:37:21;3.17;;;2.87;;
4980;SDS011;2507;50.392;7.482;2023-02-28T09:39:46;2.73;;;2.63;;
4980;SDS011;2507;50.392;7.482;2023-02-28T09:42:13;3.30;;;3.10;;
4980;SDS011;2507;50.392;7.482;2023-02-28T09:44:47;3.80;;;2.40;;
4980;SDS011;2507;50.392;7.482;2023-02-28T09:47:36;3.50;;;3.13;;
4980;SDS011;2507;50.392;7.482;2023-02-28T09:50:11;2.90;;;2.70;;
4980;SDS011;2507;50.392;7.482;2023-02-28T09:52:41;3.03;;;2.83;;
4980;SDS011;2507;50.392;7.482;2023-02-28T09:55:22;3.10;;;2.90;;
4980;SDS011;2507;50.392;7.482;2023-02-28T09:57:54;2.93;;;2.67;;
4980;SDS011;2507;50.392;7.482;2023-02-28T10:00:25;4.00;;;3.70;;
4980;SDS011;2507;50.392;7.482;2023-02-28T10:03:15;3.30;;;3.03;;
4980;SDS011;2507;50.392;7.482;2023-02-28T10:08:19;3.50;;;3.20;;
4980;SDS011;2507;50.392;7.482;2023-02-28T10:10:57;3.47;;;3.33;;
4980;SDS011;2507;50.392;7.482;2023-02-28T10:13:35;3.47;;;3.23;;
4980;SDS011;2507;50.392;7.482;2023-02-28T10:16:05;3.50;;;3.33;;
4980;SDS011;2507;50.392;7.482;2023-02-28T10:18:41;3.10;;;2.80;;
4980;SDS011;2507;50.392;7.482;2023-02-28T10:21:17;3.30;;;3.10;;
4980;SDS011;2507;50.392;7.482;2023-02-28T10:23:46;2.33;;;2.23;;
4980;SDS011;2507;50.392;7.482;2023-02-28T10:26:14;2.90;;;2.80;;
4980;SDS011;2507;50.392;7.482;2023-02-28T10:28:41;4.33;;;3.83;;
4980;SDS011;2507;50.392;7.482;2023-02-28T10:31:10;4.50;;;4.20;;
4980;SDS011;2507;50.392;7.482;2023-02-28T10:33:42;3.50;;;3.30;;
4980;SDS011;2507;50.392;7.482;2023-02-28T10:36:10;4.13;;;3.83;;
4980;SDS011;2507;50.392;7.482;2023-02-28T10:38:39;3.93;;;3.70;;
4980;SDS011;2507;50.392;7.482;2023-02-28T10:41:07;3.80;;;3.50;;
4980;SDS011;2507;50.392;7.482;2023-02-28T10:43:36;3.70;;;3.53;;
4980;SDS011;2507;50.392;7.482;2023-02-28T10:49:11;4.60;;;3.30;;
4980;SDS011;2507;50.392;7.482;2023-02-28T10:51:33;3.07;;;2.93;;
4980;SDS011;2507;50.392;7.482;2023-02-28T10:54:01;8.47;;;3.50;;
4980;SDS011;2507;50.392;7.482;2023-02-28T10:56:27;4.60;;;4.20;;
4980;SDS011;2507;50.392;7.482;2023-02-28T11:01:24;3.10;;;2.83;;
4980;SDS011;2507;50.392;7.482;2023-02-28T11:09:46;2.90;;;2.70;;
4980;SDS011;2507;50.392;7.482;2023-02-28T11:12:19;2.90;;;2.73;;
4980;SDS011;2507;50.392;7.482;2023-02-28T11:14:49;3.37;;;3.13;;
4980;SDS011;2507;50.392;7.482;2023-02-28T11:17:22;3.17;;;2.97;;
4980;SDS011;2507;50.392;7.482;2023-02-28T11:19:55;3.47;;;3.20;;
4980;SDS011;2507;50.392;7.482;2023-02-28T11:22:27;3.23;;;3.00;;
4980;SDS011;2507;50.392;7.482;2023-02-28T11:24:56;3.27;;;3.07;;
4980;SDS011;2507;50.392;7.482;2023-02-28T11:27:42;3.17;;;3.07;;
4980;SDS011;2507;50.392;7.482;2023-02-28T11:30:25;3.27;;;3.07;;
4980;SDS011;2507;50.392;7.482;2023-02-28T11:32:57;3.63;;;3.43;;
4980;SDS011;2507;50.392;7.482;2023-02-28T11:35:36;4.03;;;3.40;;
4980;SDS011;2507;50.392;7.482;2023-02-28T11:38:05;4.03;;;3.83;;
4980;SDS011;2507;50.392;7.482;2023-02-28T11:43:25;3.13;;;2.93;;
4980;SDS011;2507;50.392;7.482;2023-02-28T11:46:33;3.90;;;3.50;;
4980;SDS011;2507;50.392;7.482;2023-02-28T11:52:10;5.73;;;3.87;;
4980;SDS011;2507;50.392;7.482;2023-02-28T11:54:58;4.33;;;3.67;;
4980;SDS011;2507;50.392;7.482;2023-02-28T12:03:06;7.77;;;4.07;;
4980;SDS011;2507;50.392;7.482;2023-02-28T12:05:46;3.57;;;3.30;;
4980;SDS011;2507;50.392;7.482;2023-02-28T12:24:35;6.17;;;3.03;;
4980;SDS011;2507;50.392;7.482;2023-02-28T12:27:03;3.67;;;3.47;;
4980;SDS011;2507;50.392;7.482;2023-02-28T12:29:39;3.50;;;3.30;;
4980;SDS011;2507;50.392;7.482;2023-02-28T12:32:14;3.40;;;3.10;;
4980;SDS011;2507;50.392;7.482;2023-02-28T12:34:47;3.10;;;2.90;;
4980;SDS011;2507;50.392;7.482;2023-02-28T12:37:25;3.37;;;3.17;;
4980;SDS011;2507;50.392;7.482;2023-02-28T12:40:19;5.13;;;2.97;;
4980;SDS011;2507;50.392;7.482;2023-02-28T12:42:51;3.27;;;3.17;;
4980;SDS011;2507;50.392;7.482;2023-02-28T12:48:04;4.10;;;3.13;;
4980;SDS011;2507;50.392;7.482;2023-02-28T12:50:33;3.13;;;3.00;;
4980;SDS011;2507;50.392;7.482;2023-02-28T12:58:56;3.00;;;2.70;;
4980;SDS011;2507;50.392;7.482;2023-02-28T13:10:02;3.03;;;2.93;;
4980;SDS011;2507;50.392;7.482;2023-02-28T13:12:29;3.03;;;2.87;;
4980;SDS011;2507;50.392;7.482;2023-02-28T13:15:04;5.23;;;3.20;;
4980;SDS011;2507;50.392;7.482;2023-02-28T13:17:37;3.87;;;3.50;;
4980;SDS011;2507;50.392;7.482;2023-02-28T13:20:04;4.03;;;3.73;;
4980;SDS011;2507;50.392;7.482;2023-02-28T13:22:45;3.70;;;3.50;;
4980;SDS011;2507;50.392;7.482;2023-02-28T13:27:58;3.53;;;3.23;;
4980;SDS011;2507;50.392;7.482;2023-02-28T13:33:28;3.30;;;3.10;;
4980;SDS011;2507;50.392;7.482;2023-02-28T13:38:36;4.23;;;4.00;;
4980;SDS011;2507;50.392;7.482;2023-02-28T13:46:30;3.73;;;3.53;;
4980;SDS011;2507;50.392;7.482;2023-02-28T13:48:56;3.87;;;3.60;;
4980;SDS011;2507;50.392;7.482;2023-02-28T13:51:44;5.23;;;4.40;;
4980;SDS011;2507;50.392;7.482;2023-02-28T13:56:57;3.87;;;3.57;;
4980;SDS011;2507;50.392;7.482;2023-02-28T13:59:40;4.17;;;3.80;;
4980;SDS011;2507;50.392;7.482;2023-02-28T14:05:30;3.80;;;3.63;;
4980;SDS011;2507;50.392;7.482;2023-02-28T14:07:59;4.50;;;4.10;;
4980;SDS011;2507;50.392;7.482;2023-02-28T14:10:31;4.00;;;3.80;;
4980;SDS011;2507;50.392;7.482;2023-02-28T14:17:59;6.40;;;5.30;;
4980;SDS011;2507;50.392;7.482;2023-02-28T14:20:27;5.33;;;4.93;;
4980;SDS011;2507;50.392;7.482;2023-02-28T14:25:41;4.93;;;4.07;;
4980;SDS011;2507;50.392;7.482;2023-02-28T14:28:24;4.00;;;3.70;;
4980;SDS011;2507;50.392;7.482;2023-02-28T14:31:33;5.23;;;4.83;;
4980;SDS011;2507;50.392;7.482;2023-02-28T14:33:57;4.23;;;4.03;;
4980;SDS011;2507;50.392;7.482;2023-02-28T14:36:43;5.50;;;4.03;;
4980;SDS011;2507;50.392;7.482;2023-02-28T14:39:13;4.33;;;4.13;;
4980;SDS011;2507;50.392;7.482;2023-02-28T14:41:45;4.93;;;4.53;;
4980;SDS011;2507;50.392;7.482;2023-02-28T14:46:41;5.23;;;4.73;;
4980;SDS011;2507;50.392;7.482;2023-02-28T14:52:12;4.50;;;4.20;;
4980;SDS011;2507;50.392;7.482;2023-02-28T14:54:45;4.47;;;4.17;;
4980;SDS011;2507;50.392;7.482;2023-02-28T14:57:50;5.10;;;4.60;;
4980;SDS011;2507;50.392;7.482;2023-02-28T15:00:22;5.63;;;5.13;;
4980;SDS011;2507;50.392;7.482;2023-02-28T15:02:50;4.90;;;4.60;;
4980;SDS011;2507;50.392;7.482;2023-02-28T15:05:33;5.07;;;4.77;;
4980;SDS011;2507;50.392;7.482;2023-02-28T15:10:37;5.23;;;4.83;;
4980;SDS011;2507;50.392;7.482;2023-02-28T15:13:05;4.57;;;4.30;;
4980;SDS011;2507;50.392;7.482;2023-02-28T15:15:35;5.00;;;4.60;;
4980;SDS011;2507;50.392;7.482;2023-02-28T15:18:26;5.30;;;4.90;;
4980;SDS011;2507;50.392;7.482;2023-02-28T15:21:18;5.87;;;4.50;;
4980;SDS011;2507;50.392;7.482;2023-02-28T15:23:51;4.97;;;4.57;;
4980;SDS011;2507;50.392;7.482;2023-02-28T15:26:22;5.00;;;4.70;;
4980;SDS011;2507;50.392;7.482;2023-02-28T15:29:00;4.87;;;4.57;;
4980;SDS011;2507;50.392;7.482;2023-02-28T15:31:48;4.80;;;4.40;;
4980;SDS011;2507;50.392;7.482;2023-02-28T15:34:22;5.60;;;5.20;;
4980;SDS011;2507;50.392;7.482;2023-02-28T15:36:53;5.47;;;5.07;;
4980;SDS011;2507;50.392;7.482;2023-02-28T15:39:22;8.30;;;4.93;;
4980;SDS011;2507;50.392;7.482;2023-02-28T15:41:49;8.63;;;7.80;;
4980;SDS011;2507;50.392;7.482;2023-02-28T15:44:26;8.73;;;6.80;;
4980;SDS011;2507;50.392;7.482;2023-02-28T15:47:04;6.43;;;5.93;;
4980;SDS011;2507;50.392;7.482;2023-02-28T15:49:36;10.00;;;8.90;;
4980;SDS011;2507;50.392;7.482;2023-02-28T15:52:04;6.00;;;5.50;;
4980;SDS011;2507;50.392;7.482;2023-02-28T15:54:32;5.73;;;5.33;;
4980;SDS011;2507;50.392;7.482;2023-02-28T15:57:02;4.87;;;4.50;;
4980;SDS011;2507;50.392;7.482;2023-02-28T15:59:33;5.47;;;5.00;;
4980;SDS011;2507;50.392;7.482;2023-02-28T16:04:35;5.03;;;4.73;;
4980;SDS011;2507;50.392;7.482;2023-02-28T16:07:02;5.87;;;5.23;;
4980;SDS011;2507;50.392;7.482;2023-02-28T16:09:27;6.10;;;5.60;;
4980;SDS011;2507;50.392;7.482;2023-02-28T16:11:55;5.03;;;4.73;;
4980;SDS011;2507;50.392;7.482;2023-02-28T16:14:22;5.47;;;5.07;;
4980;SDS011;2507;50.392;7.482;2023-02-28T16:16:50;9.53;;;8.63;;
4980;SDS011;2507;50.392;7.482;2023-02-28T16:19:21;5.70;;;5.20;;
4980;SDS011;2507;50.392;7.482;2023-02-28T16:21:47;5.90;;;5.40;;
4980;SDS011;2507;50.392;7.482;2023-02-28T16:24:12;10.93;;;5.50;;
4980;SDS011;2507;50.392;7.482;2023-02-28T16:26:39;6.87;;;6.20;;
4980;SDS011;2507;50.392;7.482;2023-02-28T16:29:06;5.40;;;4.87;;
4980;SDS011;2507;50.392;7.482;2023-02-28T16:31:33;4.83;;;4.53;;
4980;SDS011;2507;50.392;7.482;2023-02-28T16:34:01;5.43;;;5.00;;
4980;SDS011;2507;50.392;7.482;2023-02-28T16:36:28;5.07;;;4.70;;
4980;SDS011;2507;50.392;7.482;2023-02-28T16:38:54;5.30;;;4.90;;
4980;SDS011;2507;50.392;7.482;2023-02-28T16:41:20;5.20;;;4.90;;
4980;SDS011;2507;50.392;7.482;2023-02-28T16:43:49;11.33;;;4.57;;
4980;SDS011;2507;50.392;7.482;2023-02-28T16:46:16;5.60;;;5.20;;
4980;SDS011;2507;50.392;7.482;2023-02-28T16:48:43;5.40;;;4.93;;
4980;SDS011;2507;50.392;7.482;2023-02-28T16:51:13;5.13;;;4.73;;
4980;SDS011;2507;50.392;7.482;2023-02-28T16:53:40;5.93;;;5.43;;
4980;SDS011;2507;50.392;7.482;2023-02-28T16:56:05;7.90;;;4.50;;
4980;SDS011;2507;50.392;7.482;2023-02-28T16:58:32;5.27;;;4.83;;
4980;SDS011;2507;50.392;7.482;2023-02-28T17:01:00;6.00;;;5.40;;
4980;SDS011;2507;50.392;7.482;2023-02-28T17:03:26;5.57;;;4.67;;
4980;SDS011;2507;50.392;7.482;2023-02-28T17:05:52;7.10;;;6.40;;
4980;SDS011;2507;50.392;7.482;2023-02-28T17:08:18;14.87;;;11.73;;
4980;SDS011;2507;50.392;7.482;2023-02-28T17:10:44;10.70;;;9.00;;
4980;SDS011;2507;50.392;7.482;2023-02-28T17:13:10;7.70;;;7.00;;
4980;SDS011;2507;50.392;7.482;2023-02-28T17:15:35;7.43;;;6.73;;
4980;SDS011;2507;50.392;7.482;2023-02-28T17:18:02;8.83;;;7.80;;
4980;SDS011;2507;50.392;7.482;2023-02-28T17:20:28;12.00;;;8.47;;
4980;SDS011;2507;50.392;7.482;2023-02-28T17:22:54;12.33;;;10.00;;
4980;SDS011;2507;50.392;7.482;2023-02-28T17:25:20;7.47;;;6.87;;
4980;SDS011;2507;50.392;7.482;2023-02-28T17:27:46;8.23;;;7.43;;
4980;SDS011;2507;50.392;7.482;2023-02-28T17:30:19;7.90;;;7.10;;
4980;SDS011;2507;50.392;7.482;2023-02-28T17:32:46;9.07;;;8.00;;
4980;SDS011;2507;50.392;7.482;2023-02-28T17:35:12;10.43;;;8.53;;
4980;SDS011;2507;50.392;7.482;2023-02-28T17:37:38;9.77;;;8.77;;
4980;SDS011;2507;50.392;7.482;2023-02-28T17:40:03;10.97;;;8.70;;
4980;SDS011;2507;50.392;7.482;2023-02-28T17:42:30;8.03;;;7.10;;
4980;SDS011;2507;50.392;7.482;2023-02-28T17:44:55;8.80;;;7.90;;